Flight Track Log - Related Links

Times and Time Zones

All times are in EDT time to prevent confusion due to time zone crossing. See the TAM3493 flight status page for this flight to view local times or setup timezone preferences in your user account.

Time Position Orientation Groundspeed Altitude Reporting Facility
EDT Latitude Longitude Course Direction KTS MPH feet Rate Location/Type
Fri 04:26:30 PM -20.8120 -49.4030 114° Southeast 130 150  Level FlightAware ADS-B
Fri 04:26:55 PM -20.8170 -49.3910 114° Southeast 130 150 74 Level FlightAware ADS-B
Fri 04:27:10 PM -20.8120 -49.4030 294° West 130 150 75 Level FlightAware ADS-B
Fri 04:28:39 PM -20.8170 -49.3910 114° Southeast 130 150 76 Level FlightAware ADS-B
Fri 04:29:02 PM -20.8120 -49.4030 294° West 130 150 80 Level FlightAware ADS-B
Fri 04:29:27 PM -20.8170 -49.3910 114° Southeast 130 150 81 Level FlightAware ADS-B
Fri 04:29:34 PM -20.8120 -49.4030 294° West 130 150 82 Level FlightAware ADS-B
Fri 04:29:59 PM -20.8170 -49.3910 114° Southeast 130 150 83 Level FlightAware ADS-B
Fri 04:30:22 PM -20.8120 -49.4030 294° West 130 150 84 Level FlightAware ADS-B
Fri 04:32:04 PM -20.8170 -49.3910 114° Southeast 130 150 85 Level FlightAware ADS-B
Fri 04:32:19 PM -20.8120 -49.4030 294° West 130 150 91 Level FlightAware ADS-B
Fri 04:32:44 PM -20.8170 -49.3910 114° Southeast 130 150 92 Level FlightAware ADS-B
Fri 04:33:20 PM -20.8180 -49.3890 118° Southeast 130 150 94 Level FlightAware ADS-B
Fri 04:33:48 PM -20.8170 -49.3910 298° West 130 150 96 Level FlightAware ADS-B
Fri 04:34:03 PM -20.8120 -49.4030 294° West 130 150 99 Level FlightAware ADS-B
Fri 04:34:28 PM -20.8170 -49.3910 114° Southeast 130 150 100 Level FlightAware ADS-B
Fri 04:35:33 PM -20.8180 -49.3900 137° Southeast 130 150 102 Level FlightAware ADS-B
Fri 04:36:09 PM -20.8170 -49.3910 317° Northwest 130 150 107 Level FlightAware ADS-B
Fri 04:37:15 PM -20.8180 -49.3900 137° Southeast 130 150 110 Level FlightAware ADS-B
Fri 04:39:00 PM -20.9209 -49.2781 135° Southeast  Level Estimated
Fri 04:40:00 PM -20.9797 -49.2140 135° Southeast  Level Estimated
Fri 04:41:00 PM -21.0385 -49.1499 134° Southeast  Level Estimated
Fri 04:42:00 PM -21.0972 -49.0858 134° Southeast  Level Estimated
Fri 04:43:00 PM -21.1559 -49.0216 134° Southeast  Level Estimated
Fri 04:44:00 PM -21.2146 -48.9574 134° Southeast  Level Estimated
Fri 04:45:00 PM -21.2732 -48.8931 134° Southeast  Level Estimated
Fri 04:46:00 PM -21.3319 -48.8287 134° Southeast  Level Estimated
Fri 04:47:00 PM -21.3905 -48.7643 134° Southeast  Level Estimated
Fri 04:48:00 PM -21.4491 -48.6999 134° Southeast  Level Estimated
Fri 04:48:50 PM -20.8120 -49.4030 134° Southeast  Level FlightAware ADS-B
Fri 04:49:00 PM -21.5076 -48.6354 134° Southeast  Level Estimated
Fri 04:51:00 PM -20.9393 -49.2642 134° Southeast  Level Estimated
Fri 04:52:00 PM -20.9980 -49.2001 134° Southeast  Level Estimated
Fri 04:52:31 PM -20.8140 -49.4040 134° Southeast  Level FlightAware ADS-B
Fri 04:56:00 PM -20.8130 -49.4020 47° Northeast 96 110 608 Level FlightAware ADS-B
Fri 04:56:08 PM -20.8080 -49.3950 53° Northeast 151 174 2,200 5,091 Climbing FlightAware ADS-B
Fri 04:56:33 PM -20.8030 -49.3770 73° East 165 190 2,800 1,273 Climbing FlightAware ADS-B
Fri 04:56:41 PM -20.8060 -49.3710 118° Southeast 173 199 2,900 1,125 Climbing FlightAware ADS-B
Fri 04:56:49 PM -20.8110 -49.3670 143° Southeast 184 212 3,100 1,500 Climbing FlightAware ADS-B
Fri 04:57:13 PM -20.8290 -49.3520 142° Southeast 212 244 3,700 1,500 Climbing FlightAware ADS-B
Fri 04:57:29 PM -20.8400 -49.3450 149° Southeast 225 259 4,100 1,875 Climbing FlightAware ADS-B
Fri 04:57:45 PM -20.8550 -49.3280 133° Southeast 251 289 4,700 2,160 Climbing FlightAware ADS-B
Fri 04:57:54 PM -20.8580 -49.3180 108° East 259 298 5,000 2,625 Climbing FlightAware ADS-B
Fri 04:58:01 PM -20.8600 -49.3070 101° East 264 304 5,400 3,130 Climbing FlightAware ADS-B
Fri 04:58:17 PM -20.8670 -49.2930 118° Southeast 269 310 6,200 3,563 Climbing FlightAware ADS-B
Fri 04:58:33 PM -20.8810 -49.2710 124° Southeast 271 312 7,300 3,750 Climbing FlightAware ADS-B
Fri 04:58:49 PM -20.8920 -49.2540 125° Southeast 275 316 8,200 3,450 Climbing FlightAware ADS-B
Fri 04:59:13 PM -20.9100 -49.2260 125° Southeast 279 321 9,600 2,893 Climbing FlightAware ADS-B
Fri 04:59:45 PM -20.9320 -49.1880 122° Southeast 300 345 10,900 1,969 Climbing FlightAware ADS-B
Fri 05:00:17 PM -20.9580 -49.1440 122° Southeast 342 394 11,700 2,027 Climbing FlightAware ADS-B
Fri 05:00:59 PM -20.9900 -49.0880 121° Southeast 358 412 13,400 3,000 Climbing FlightAware ADS-B
Fri 05:01:47 PM -21.0340 -49.0110 121° Southeast 349 402 16,200 3,000 Climbing FlightAware ADS-B
Fri 05:02:19 PM -21.0620 -48.9630 122° Southeast 359 413 17,400 1,917 Climbing FlightAware ADS-B
Fri 05:02:59 PM -21.0940 -48.9070 121° Southeast 373 429 18,500 1,950 Climbing FlightAware ADS-B
Fri 05:03:39 PM -21.1360 -48.8360 122° Southeast 383 441 20,000 2,026 Climbing FlightAware ADS-B
Fri 05:04:16 PM -21.1670 -48.7820 122° Southeast 391 450 21,100 2,182 Climbing FlightAware ADS-B
Fri 05:04:56 PM -21.2110 -48.7060 122° Southeast 390 449 22,800 2,605 Climbing FlightAware ADS-B
Fri 05:05:32 PM -21.2450 -48.6460 121° Southeast 386 444 24,400 2,333 Climbing FlightAware ADS-B
Fri 05:06:08 PM -21.2780 -48.5880 121° Southeast 389 448 25,600 1,941 Climbing FlightAware ADS-B
Fri 05:06:40 PM -21.3080 -48.5370 122° Southeast 390 449 26,600 1,217 Climbing FlightAware ADS-B
Fri 05:07:17 PM -21.3430 -48.4750 121° Southeast 388 447 27,000 333 Climbing FlightAware ADS-B
Fri 05:07:52 PM -21.3760 -48.4170 121° Southeast 386 444 27,000  Level FlightAware ADS-B
Fri 05:08:28 PM -21.4090 -48.3590 121° Southeast 386 444 27,000  Level FlightAware ADS-B
Fri 05:09:00 PM -21.4390 -48.3070 122° Southeast 386 444 27,000  Level FlightAware ADS-B
Fri 05:09:36 PM -21.4730 -48.2470 121° Southeast 385 443 27,000  Level FlightAware ADS-B
Fri 05:10:14 PM -21.5050 -48.1910 122° Southeast 385 443 27,000  Level FlightAware ADS-B
Fri 05:10:46 PM -21.5380 -48.1330 121° Southeast 385 443 27,000  Level FlightAware ADS-B
Fri 05:11:02 PM -21.5530 -48.1070 122° Southeast 385 443 27,000  Level FlightAware ADS-B
Fri 05:11:52 PM -21.5990 -48.0260 121° Southeast 384 442 27,000  Level FlightAware ADS-B
Fri 05:12:28 PM -21.6310 -47.9690 121° Southeast 384 442 27,000  Level FlightAware ADS-B
Fri 05:13:00 PM -21.6610 -47.9170 122° Southeast 385 443 27,000  Level FlightAware ADS-B
Fri 05:13:37 PM -21.6950 -47.8570 121° Southeast 385 443 27,000  Level FlightAware ADS-B
Fri 05:14:10 PM -21.7270 -47.8010 122° Southeast 385 443 27,000  Level FlightAware ADS-B
Fri 05:14:46 PM -21.7610 -47.7430 122° Southeast 398 458 27,000  Level FlightAware ADS-B
Fri 05:15:02 PM -21.7840 -47.7210 138° Southeast 413 475 27,000  Level FlightAware ADS-B
Fri 05:15:38 PM -21.8410 -47.6760 144° Southeast 442 509 27,000  Level FlightAware ADS-B
Fri 05:16:10 PM -21.8960 -47.6340 145° Southeast 463 533 27,000  Level FlightAware ADS-B
Fri 05:16:46 PM -21.9570 -47.5860 144° Southeast 465 535 27,000  Level FlightAware ADS-B
Fri 05:17:23 PM -22.0220 -47.5350 144° Southeast 465 535 27,000  Level FlightAware ADS-B
Fri 05:17:57 PM -22.0810 -47.4880 144° Southeast 464 534 27,000  Level FlightAware ADS-B
Fri 05:18:31 PM -22.1390 -47.4430 144° Southeast 463 533 27,000  Level FlightAware ADS-B
Fri 05:19:06 PM -22.2040 -47.3920 144° Southeast 462 532 27,000  Level FlightAware ADS-B
Fri 05:19:40 PM -22.2630 -47.3450 144° Southeast 462 532 27,000  Level FlightAware ADS-B
Fri 05:20:18 PM -22.3290 -47.2930 144° Southeast 462 532 27,000 -250 Level FlightAware ADS-B
Fri 05:20:52 PM -22.3860 -47.2480 144° Southeast 449 517 26,700 -1,147 Descending FlightAware ADS-B
Fri 05:21:26 PM -22.4430 -47.2030 144° Southeast 440 506 25,700 -1,971 Descending FlightAware ADS-B
Fri 05:22:02 PM -22.5010 -47.1570 144° Southeast 424 488 24,400 -2,167 Descending FlightAware ADS-B
Fri 05:22:38 PM -22.5570 -47.1130 144° Southeast 409 471 23,100 -2,143 Descending FlightAware ADS-B
Fri 05:22:58 PM -22.5890 -47.0920 149° Southeast 404 465 22,400 -2,423 Descending FlightAware ADS-B
Fri 05:23:30 PM -22.6460 -47.0680 159° South 402 463 21,000 -2,289 Descending FlightAware ADS-B
Fri 05:24:14 PM -22.7190 -47.0370 159° South 380 437 19,500 -1,537 Descending FlightAware ADS-B
Fri 05:24:52 PM -22.7770 -47.0130 159° South 326 375 18,900 -1,114 Descending FlightAware ADS-B
Fri 05:25:24 PM -22.8210 -46.9950 159° South 296 341 18,200 -1,676 Descending FlightAware ADS-B
Fri 05:26:00 PM -22.8670 -46.9760 159° South 298 343 17,000 -1,588 Descending FlightAware ADS-B
Fri 05:26:32 PM -22.9070 -46.9580 157° South 289 333 16,400 -1,050 Descending FlightAware ADS-B
Fri 05:26:40 PM -22.9160 -46.9520 148° Southeast 285 328 16,300 -1,000 Descending FlightAware ADS-B
Fri 05:26:50 PM -22.9260 -46.9410 135° Southeast 282 325 16,100 -1,091 Descending FlightAware ADS-B
Fri 05:27:02 PM -22.9310 -46.9270 111° Southeast 279 321 15,900 -900 Descending FlightAware ADS-B
Fri 05:27:10 PM -22.9320 -46.9160 96° East 279 321 15,800 -1,000 Descending FlightAware ADS-B
Fri 05:27:44 PM -22.9310 -46.8690 89° East 270 311 15,200 -1,371 Descending FlightAware ADS-B
Fri 05:28:20 PM -22.9290 -46.8200 87° East 273 314 14,200 -1,781 Descending FlightAware ADS-B
Fri 05:28:48 PM -22.9360 -46.7820 101° East 283 326 13,300 -1,219 Descending FlightAware ADS-B
Fri 05:29:24 PM -22.9600 -46.7390 121° Southeast 270 311 12,900 -686 Descending FlightAware ADS-B
Fri 05:29:58 PM -22.9810 -46.7020 122° Southeast 254 292 12,500 -771 Descending FlightAware ADS-B
Fri 05:30:34 PM -23.0030 -46.6630 122° Southeast 247 284 12,000 -1,053 Descending FlightAware ADS-B
Fri 05:30:55 PM -23.0160 -46.6430 125° Southeast 248 285 11,500 -1,400 Descending FlightAware ADS-B
Fri 05:31:04 PM -23.0260 -46.6360 147° Southeast 248 285 11,300 -900 Descending FlightAware ADS-B
Fri 05:31:15 PM -23.0380 -46.6330 167° South 250 288 11,200 -774 Descending FlightAware ADS-B
Fri 05:31:35 PM -23.0590 -46.6360 187° South 242 278 10,900 -982 Descending FlightAware ADS-B
Fri 05:32:10 PM -23.0980 -46.6440 191° South 229 264 10,300 -982 Descending FlightAware ADS-B
Fri 05:32:30 PM -23.1190 -46.6480 190° South 226 260 10,000 -1,029 Descending FlightAware ADS-B
Fri 05:32:45 PM -23.1350 -46.6510 190° South 226 260 9,700 -1,200 Descending FlightAware ADS-B
Fri 05:33:05 PM -23.1580 -46.6550 189° South 228 262 9,300 -1,200 Descending FlightAware ADS-B
Fri 05:33:30 PM -23.1850 -46.6600 190° South 231 266 8,800 -1,733 Descending FlightAware ADS-B
Fri 05:33:50 PM -23.2060 -46.6650 192° South 248 285 8,000 -2,400 Descending FlightAware ADS-B
Fri 05:34:10 PM -23.2300 -46.6690 189° South 259 298 7,200 -1,714 Descending FlightAware ADS-B
Fri 05:34:25 PM -23.2480 -46.6730 192° South 248 285 7,000 -800 Descending FlightAware ADS-B
Fri 05:34:40 PM -23.2650 -46.6760 189° South 250 288 6,800 -514 Descending FlightAware ADS-B
Fri 05:35:00 PM -23.2870 -46.6800 189° South 231 266 6,700 -600 Descending FlightAware ADS-B
Fri 05:35:20 PM -23.3080 -46.6840 190° South 226 260 6,400 -900 Descending FlightAware ADS-B
Fri 05:35:40 PM -23.3300 -46.6890 192° South 231 266 6,100 -750 Descending FlightAware ADS-B
Fri 05:36:00 PM -23.3490 -46.6930 191° South 218 251 5,900 -533 Descending FlightAware ADS-B
Fri 05:36:25 PM -23.3760 -46.6980 190° South 225 259 5,700 -400 Descending FlightAware ADS-B
Fri 05:36:45 PM -23.3960 -46.6900 160° South 216 249 5,600 -333 Descending FlightAware ADS-B
Fri 05:37:01 PM -23.4090 -46.6820 151° Southeast 207 238 5,500 -514 Descending FlightAware ADS-B
Fri 05:37:20 PM -23.4250 -46.6730 153° Southeast 207 238 5,300 -462 Descending FlightAware ADS-B
Fri 05:37:40 PM -23.4420 -46.6630 152° Southeast 190 219 5,200 -514 Descending FlightAware ADS-B
Fri 05:37:55 PM -23.4540 -46.6550 149° Southeast 186 214 5,000 -857 Descending FlightAware ADS-B
Fri 05:38:15 PM -23.4690 -46.6460 151° Southeast 181 208 4,700 -800 Descending FlightAware ADS-B
Fri 05:38:25 PM -23.4740 -46.6400 132° Southeast 178 205 4,600 -400 Descending FlightAware ADS-B
Fri 05:38:30 PM -23.4750 -46.6350 102° East 177 204 4,600  Level FlightAware ADS-B
Fri 05:38:35 PM -23.4750 -46.6300 90° East 172 198 4,600 -207 Level FlightAware ADS-B
Fri 05:38:59 PM -23.4730 -46.6170 80° East 170 196 4,500 -188 Descending FlightAware ADS-B
Fri 05:39:07 PM -23.4720 -46.6110 80° East 156 180 4,500 -563 Level FlightAware ADS-B
Fri 05:39:31 PM -23.4680 -46.5930 76° East 149 171 4,200 -735 Descending FlightAware ADS-B
Fri 05:39:56 PM -23.4630 -46.5760 72° East 143 165 3,900 -732 Descending FlightAware ADS-B
Fri 05:40:12 PM -23.4600 -46.5640 75° East 140 161 3,700 -750 Descending FlightAware ADS-B
Fri 05:40:36 PM -23.4550 -46.5490 70° East 139 160 3,400 -735 Descending FlightAware ADS-B
Fri 05:41:01 PM -23.4510 -46.5320 76° East 139 160 3,100 -585 Descending FlightAware ADS-B
Fri 05:41:17 PM -23.4490 -46.5250 73° East 139 160 3,000 -769 Descending FlightAware ADS-B
Fri 05:41:40 PM -23.4420 -46.5000 73° East 141 162 2,600 -1,059 Descending FlightAware ADS-B
Fri 05:41:51 PM -23.4410 -46.4940 80° East 138 159 2,400 -1,091 Descending FlightAware ADS-B
Fri 05:42:15 PM -23.4360 -46.4780 71° East 105 121 -6,000 Descending FlightAware ADS-B

Login

Don't have an account? Register now (free) for customized features, flight alerts, and more!